createdAt,value
2023-02-07T00:02:30.118Z,75.39
2023-02-07T00:05:07.678Z,75.30
2023-02-07T00:07:44.466Z,75.32
2023-02-07T00:10:22.873Z,75.24
2023-02-07T00:12:59.166Z,75.08
2023-02-07T00:15:35.979Z,75.04
2023-02-07T00:18:12.508Z,75.06
2023-02-07T00:20:58.275Z,74.82
2023-02-07T00:23:35.741Z,75.13
2023-02-07T00:26:14.501Z,75.28
2023-02-07T00:28:52.845Z,75.14
2023-02-07T00:31:33.311Z,75.11
2023-02-07T00:34:13.543Z,75.29
2023-02-07T00:36:50.097Z,75.23
2023-02-07T00:39:26.365Z,75.37
2023-02-07T00:42:02.931Z,75.35
2023-02-07T00:44:39.772Z,75.12
2023-02-07T00:47:17.292Z,75.25
2023-02-07T00:49:53.539Z,75.18
2023-02-07T00:52:29.839Z,75.14
2023-02-07T00:55:06.636Z,74.87
2023-02-07T00:57:42.924Z,75.23
2023-02-07T01:00:21.209Z,75.61
2023-02-07T01:02:58.550Z,75.60
2023-02-07T01:05:36.355Z,75.52
2023-02-07T01:08:13.319Z,75.51
2023-02-07T01:10:50.904Z,75.50
2023-02-07T01:13:27.554Z,75.47
2023-02-07T01:16:05.099Z,75.36
2023-02-07T01:18:41.435Z,75.62
2023-02-07T01:21:24.026Z,75.69
2023-02-07T01:24:00.372Z,75.83
2023-02-07T01:26:37.674Z,75.82
2023-02-07T01:29:17.019Z,75.82
2023-02-07T01:31:54.018Z,75.81
2023-02-07T01:34:30.426Z,75.84
2023-02-07T01:37:07.094Z,76.16
2023-02-07T01:39:44.584Z,76.23
2023-02-07T01:42:23.051Z,76.27
2023-02-07T01:45:29.771Z,76.42
2023-02-07T01:48:12.447Z,76.73
2023-02-07T01:50:53.968Z,76.88
2023-02-07T01:53:34.330Z,76.88
2023-02-07T01:56:29.441Z,76.93
2023-02-07T01:59:10.309Z,77.14
2023-02-07T02:01:50.340Z,77.12
2023-02-07T02:04:27.304Z,76.98
2023-02-07T02:07:03.740Z,76.77
2023-02-07T02:09:40.690Z,76.66
2023-02-07T02:12:49.077Z,76.57
2023-02-07T02:15:41.251Z,76.46
2023-02-07T02:19:29.504Z,76.19
2023-02-07T02:22:55.159Z,76.11
2023-02-07T02:26:27.620Z,76.08
2023-02-07T02:30:34.510Z,76.09
2023-02-07T02:33:34.646Z,75.83
2023-02-07T02:36:31.148Z,75.83
2023-02-07T02:39:20.221Z,75.68
2023-02-07T02:42:10.042Z,75.47
2023-02-07T02:44:53.881Z,75.40
2023-02-07T02:47:33.175Z,75.34
2023-02-07T02:50:16.474Z,75.41
2023-02-07T02:52:52.777Z,75.47
2023-02-07T02:56:12.701Z,75.36
2023-02-07T02:59:25.212Z,75.39
2023-02-07T03:02:20.899Z,75.41
2023-02-07T03:05:21.111Z,75.45
2023-02-07T03:08:16.863Z,75.28
2023-02-07T03:11:03.819Z,75.29
2023-02-07T03:14:00.475Z,75.19
2023-02-07T03:16:46.340Z,75.09
2023-02-07T03:19:30.014Z,75.05
2023-02-07T03:22:13.412Z,75.16
2023-02-07T03:25:00.290Z,75.42
2023-02-07T03:27:38.245Z,75.47
2023-02-07T03:30:22.907Z,75.50
2023-02-07T03:33:10.381Z,75.63
2023-02-07T03:35:58.714Z,75.73
2023-02-07T03:38:35.765Z,75.55
2023-02-07T03:41:22.244Z,75.22
2023-02-07T03:44:07.041Z,75.26
2023-02-07T03:46:44.699Z,75.48
2023-02-07T03:49:21.535Z,75.45
2023-02-07T03:51:58.187Z,75.46
2023-02-07T03:54:34.480Z,75.48
2023-02-07T03:57:11.003Z,75.47
2023-02-07T03:59:47.307Z,75.17
2023-02-07T04:02:23.739Z,75.12
2023-02-07T04:05:00.027Z,75.11
2023-02-07T04:07:36.601Z,75.03
2023-02-07T04:10:14.861Z,74.95
2023-02-07T04:12:51.290Z,74.73
2023-02-07T04:15:28.064Z,74.77
2023-02-07T04:18:04.537Z,74.92
2023-02-07T04:20:40.849Z,74.90
2023-02-07T04:23:17.685Z,74.86
2023-02-07T04:25:53.940Z,74.76
2023-02-07T04:28:30.938Z,74.77
2023-02-07T04:31:07.875Z,74.89
2023-02-07T04:33:44.364Z,75.23
2023-02-07T04:36:20.793Z,75.20
2023-02-07T04:38:57.207Z,75.23
2023-02-07T04:41:33.608Z,75.33
2023-02-07T04:44:10.160Z,75.59
2023-02-07T04:46:46.457Z,75.93
2023-02-07T04:49:23.214Z,76.11
2023-02-07T04:51:59.539Z,76.01
2023-02-07T04:54:36.007Z,75.90
2023-02-07T04:57:12.328Z,76.14
2023-02-07T04:59:48.549Z,76.47
2023-02-07T05:02:24.731Z,76.54
2023-02-07T05:05:01.370Z,76.93
2023-02-07T05:07:37.735Z,77.28
2023-02-07T05:10:14.484Z,77.61
2023-02-07T05:12:51.306Z,78.10
2023-02-07T05:15:27.996Z,78.33
2023-02-07T05:18:04.764Z,78.52
2023-02-07T05:20:41.181Z,78.57
2023-02-07T05:23:18.047Z,78.64
2023-02-07T05:25:55.189Z,78.78
2023-02-07T05:28:31.637Z,78.80
2023-02-07T05:31:08.295Z,78.80
2023-02-07T05:33:44.883Z,78.78
2023-02-07T05:36:21.236Z,78.71
2023-02-07T05:38:57.506Z,78.74
2023-02-07T05:41:33.978Z,78.72
2023-02-07T05:44:11.367Z,78.72
2023-02-07T05:46:47.939Z,78.78
2023-02-07T05:49:24.460Z,78.68
2023-02-07T05:52:00.887Z,78.61
2023-02-07T05:54:37.540Z,78.59
2023-02-07T05:57:13.807Z,78.54
2023-02-07T05:59:50.060Z,78.47
2023-02-07T06:02:26.879Z,78.39
2023-02-07T06:05:03.259Z,78.38
2023-02-07T06:07:40.102Z,78.40
2023-02-07T06:10:17.974Z,78.43
2023-02-07T06:12:54.656Z,78.46
2023-02-07T06:15:31.391Z,78.45
2023-02-07T06:18:08.004Z,78.36
2023-02-07T06:20:44.445Z,78.38
2023-02-07T06:23:23.182Z,78.37
2023-02-07T06:25:59.778Z,78.35
2023-02-07T06:28:36.138Z,78.37
2023-02-07T06:31:13.008Z,78.23
2023-02-07T06:33:49.842Z,78.22
2023-02-07T06:36:26.151Z,78.09
2023-02-07T06:39:03.695Z,78.06
2023-02-07T06:41:40.416Z,78.03
2023-02-07T06:44:16.997Z,77.99
2023-02-07T06:46:53.367Z,77.81
2023-02-07T06:49:29.587Z,77.86
2023-02-07T06:52:06.303Z,77.67
2023-02-07T06:54:43.464Z,77.45
2023-02-07T06:57:19.698Z,77.52
2023-02-07T06:59:56.116Z,77.49
2023-02-07T07:02:32.471Z,77.41
2023-02-07T07:05:09.812Z,77.49
2023-02-07T07:07:46.658Z,77.49
2023-02-07T07:10:23.615Z,77.25
2023-02-07T07:13:00.000Z,77.44
2023-02-07T07:15:36.540Z,77.45
2023-02-07T07:18:13.696Z,77.23
2023-02-07T07:20:53.671Z,77.25
2023-02-07T07:23:29.926Z,77.25
2023-02-07T07:26:07.077Z,77.14
2023-02-07T07:28:44.230Z,77.19
2023-02-07T07:31:20.837Z,77.02
2023-02-07T07:33:57.502Z,76.91
2023-02-07T07:36:33.796Z,76.83
2023-02-07T07:39:10.725Z,76.88
2023-02-07T07:41:47.393Z,77.00
2023-02-07T07:44:27.159Z,76.85
2023-02-07T07:47:03.500Z,76.87
2023-02-07T07:49:39.964Z,76.85
2023-02-07T07:52:16.648Z,76.80
2023-02-07T07:54:53.238Z,76.78
2023-02-07T07:57:30.085Z,76.67
2023-02-07T08:00:07.810Z,76.76
2023-02-07T08:02:49.665Z,76.67
2023-02-07T08:05:26.200Z,76.72
2023-02-07T08:08:02.932Z,76.55
2023-02-07T08:10:40.019Z,76.75
2023-02-07T08:13:18.737Z,76.40
2023-02-07T08:15:55.292Z,76.57
2023-02-07T08:18:31.845Z,76.57
2023-02-07T08:21:08.650Z,76.43
2023-02-07T08:23:46.523Z,76.36
2023-02-07T08:26:23.522Z,76.38
2023-02-07T08:29:00.027Z,76.49
2023-02-07T08:31:36.954Z,76.55
2023-02-07T08:34:13.753Z,76.60
2023-02-07T08:36:50.452Z,76.62
2023-02-07T08:39:27.335Z,76.70
2023-02-07T08:42:05.422Z,76.79
2023-02-07T08:44:42.083Z,76.85
2023-02-07T08:47:18.973Z,76.98
2023-02-07T08:49:55.741Z,77.06
2023-02-07T08:52:32.651Z,77.04
2023-02-07T08:55:10.307Z,76.91
2023-02-07T08:57:46.899Z,76.72
2023-02-07T09:00:24.724Z,76.70
2023-02-07T09:03:01.552Z,76.63
2023-02-07T09:05:38.423Z,76.47
2023-02-07T09:08:15.231Z,76.35
2023-02-07T09:10:53.823Z,76.40
2023-02-07T09:13:30.803Z,76.45
2023-02-07T09:16:07.819Z,76.25
2023-02-07T09:18:44.857Z,76.10
2023-02-07T09:21:21.716Z,76.15
2023-02-07T09:23:59.223Z,76.08
2023-02-07T09:26:36.005Z,75.92
2023-02-07T09:29:16.087Z,75.65
2023-02-07T09:31:52.871Z,75.53
2023-02-07T09:34:30.413Z,75.61
2023-02-07T09:37:07.312Z,75.50
2023-02-07T09:39:44.801Z,75.54
2023-02-07T09:42:35.373Z,75.65
2023-02-07T09:45:22.541Z,75.64
2023-02-07T09:48:11.075Z,75.32
2023-02-07T09:50:53.143Z,75.16
2023-02-07T09:53:41.777Z,75.16
2023-02-07T09:56:22.940Z,75.34
2023-02-07T09:59:07.492Z,75.18
2023-02-07T10:01:50.416Z,75.42
2023-02-07T10:04:51.496Z,75.26
2023-02-07T10:07:28.289Z,75.51
2023-02-07T10:10:05.013Z,75.17
2023-02-07T10:13:19.334Z,75.00
2023-02-07T10:16:20.874Z,74.98
2023-02-07T10:19:13.324Z,74.94
2023-02-07T10:22:05.015Z,74.61
2023-02-07T10:25:13.049Z,74.46
2023-02-07T10:28:10.708Z,74.30
2023-02-07T10:30:52.617Z,74.09
2023-02-07T10:33:37.072Z,74.20
2023-02-07T10:36:20.164Z,74.22
2023-02-07T10:39:09.826Z,74.22
2023-02-07T10:41:47.275Z,73.95
2023-02-07T10:44:25.293Z,74.03
2023-02-07T10:47:07.322Z,73.77
2023-02-07T10:49:45.329Z,73.78
2023-02-07T10:52:35.803Z,73.78
2023-02-07T10:55:21.044Z,73.41
2023-02-07T10:58:08.514Z,73.38
2023-02-07T11:00:51.173Z,73.14
2023-02-07T11:03:28.808Z,72.87
2023-02-07T11:06:10.353Z,72.66
2023-02-07T11:08:47.165Z,72.93
2023-02-07T11:11:37.214Z,72.90
2023-02-07T11:14:26.718Z,72.75
2023-02-07T11:17:05.443Z,72.89
2023-02-07T11:19:41.785Z,72.79
2023-02-07T11:22:25.452Z,72.74
2023-02-07T11:25:10.210Z,72.21
2023-02-07T11:27:47.846Z,71.84
2023-02-07T11:30:28.004Z,71.46
2023-02-07T11:33:20.551Z,71.14
2023-02-07T11:36:23.415Z,71.26
2023-02-07T11:39:03.556Z,71.26
2023-02-07T11:41:43.147Z,71.20
2023-02-07T11:44:29.761Z,70.78
2023-02-07T11:47:14.992Z,70.66
2023-02-07T11:49:56.006Z,70.52
2023-02-07T11:52:35.792Z,70.44
2023-02-07T11:55:26.365Z,70.45
2023-02-07T11:58:09.495Z,70.22
2023-02-07T12:00:46.457Z,70.10
2023-02-07T12:03:30.182Z,70.30
2023-02-07T12:06:15.603Z,70.20
2023-02-07T12:08:53.570Z,70.40
2023-02-07T12:11:37.899Z,70.32
2023-02-07T12:14:29.219Z,70.18
2023-02-07T12:17:16.027Z,70.09
2023-02-07T12:20:06.273Z,69.93
2023-02-07T12:22:58.793Z,69.66
2023-02-07T12:25:49.636Z,69.69
2023-02-07T12:28:38.958Z,69.54
2023-02-07T12:31:28.362Z,69.27
2023-02-07T12:34:15.755Z,69.23
2023-02-07T12:37:00.814Z,68.78
2023-02-07T12:39:45.634Z,68.58
2023-02-07T12:42:39.235Z,67.96
2023-02-07T12:45:32.150Z,67.68
2023-02-07T12:48:24.931Z,68.17
2023-02-07T12:51:26.109Z,67.93
2023-02-07T12:54:31.196Z,68.14
2023-02-07T12:57:22.466Z,68.31
2023-02-07T13:00:14.066Z,68.57
2023-02-07T13:03:14.646Z,68.91
2023-02-07T13:06:12.828Z,69.32
2023-02-07T13:09:09.166Z,69.47
2023-02-07T13:12:02.664Z,69.73
2023-02-07T13:15:01.357Z,69.96
2023-02-07T13:18:01.897Z,70.29
2023-02-07T13:21:00.556Z,70.53
2023-02-07T13:23:41.586Z,70.81
2023-02-07T13:26:26.597Z,70.96
2023-02-07T13:29:08.201Z,71.10
2023-02-07T13:31:51.138Z,71.25
2023-02-07T13:34:32.879Z,71.11
2023-02-07T13:37:17.352Z,71.12
2023-02-07T13:40:08.685Z,71.57
2023-02-07T13:42:57.946Z,71.77
2023-02-07T13:45:51.888Z,72.05
2023-02-07T13:48:39.280Z,72.43
2023-02-07T13:51:28.650Z,72.56
2023-02-07T13:54:32.292Z,72.70
2023-02-07T13:57:40.743Z,72.73
2023-02-07T14:00:28.249Z,72.76
2023-02-07T14:03:09.069Z,72.91
2023-02-07T14:05:48.520Z,72.88
2023-02-07T14:08:29.560Z,73.00
2023-02-07T14:11:37.931Z,73.24
2023-02-07T14:14:28.523Z,73.18
2023-02-07T14:17:07.654Z,73.25
2023-02-07T14:19:59.366Z,73.45
2023-02-07T14:25:48.534Z,73.51
2023-02-07T14:28:37.302Z,73.36
2023-02-07T14:31:36.928Z,73.58
2023-02-07T14:34:20.844Z,73.60
2023-02-07T14:36:57.488Z,73.66
2023-02-07T14:39:37.823Z,73.80
2023-02-07T14:42:26.997Z,73.80
2023-02-07T14:45:04.807Z,73.93
2023-02-07T14:47:41.660Z,74.01
2023-02-07T14:50:30.843Z,74.09
2023-02-07T14:53:14.833Z,74.23
2023-02-07T14:56:00.143Z,74.30
2023-02-07T14:58:45.431Z,74.31
2023-02-07T15:01:27.133Z,74.44
2023-02-07T15:04:07.811Z,74.59
2023-02-07T15:06:49.232Z,74.62
2023-02-07T15:09:30.074Z,74.62
2023-02-07T15:12:25.707Z,74.74
2023-02-07T15:15:03.113Z,74.80
2023-02-07T15:17:44.492Z,74.92
2023-02-07T15:20:29.265Z,75.15
2023-02-07T15:23:08.473Z,75.23
2023-02-07T15:25:48.272Z,75.26
2023-02-07T15:28:32.024Z,75.37
2023-02-07T15:31:17.735Z,75.44
2023-02-07T15:33:59.069Z,75.64
2023-02-07T15:36:41.926Z,75.64
2023-02-07T15:39:24.255Z,75.64
2023-02-07T15:42:01.638Z,75.68
2023-02-07T15:44:52.830Z,75.66
2023-02-07T15:47:40.520Z,75.59
2023-02-07T15:50:29.666Z,75.56
2023-02-07T15:53:11.040Z,75.55
2023-02-07T15:55:51.608Z,75.47
2023-02-07T15:58:36.202Z,75.31
2023-02-07T16:01:25.962Z,75.22
2023-02-07T16:04:04.698Z,75.13
2023-02-07T16:06:54.805Z,75.20
2023-02-07T16:09:47.971Z,75.30
2023-02-07T16:12:45.897Z,75.38
2023-02-07T16:15:37.705Z,75.39
2023-02-07T16:18:41.393Z,75.33
2023-02-07T16:21:23.960Z,75.41
2023-02-07T16:24:09.845Z,75.48
2023-02-07T16:26:49.058Z,75.58
2023-02-07T16:29:28.327Z,75.70
2023-02-07T16:32:05.672Z,75.76
2023-02-07T16:34:53.892Z,75.82
2023-02-07T16:37:35.267Z,75.82
2023-02-07T16:40:15.454Z,75.81
2023-02-07T16:42:54.336Z,75.89
2023-02-07T16:45:32.792Z,76.00
2023-02-07T16:48:16.693Z,75.99
2023-02-07T16:50:53.366Z,76.00
2023-02-07T16:53:29.717Z,75.97
2023-02-07T16:56:07.518Z,75.85
2023-02-07T16:58:44.611Z,75.81
2023-02-07T17:01:25.201Z,75.78
2023-02-07T17:04:01.873Z,75.75
2023-02-07T17:06:38.914Z,75.79
2023-02-07T17:09:21.281Z,75.70
2023-02-07T17:11:58.562Z,75.63
2023-02-07T17:14:36.420Z,75.59
2023-02-07T17:17:14.692Z,75.58
2023-02-07T17:19:51.600Z,75.59
2023-02-07T17:22:28.067Z,75.59
2023-02-07T17:25:04.546Z,75.59
2023-02-07T17:27:40.915Z,75.60
2023-02-07T17:30:24.564Z,75.66
2023-02-07T17:33:00.894Z,75.69
2023-02-07T17:35:38.446Z,75.72
2023-02-07T17:38:15.904Z,75.80
2023-02-07T17:40:53.265Z,75.92
2023-02-07T17:43:29.695Z,76.08
2023-02-07T17:46:06.539Z,76.18
2023-02-07T17:48:43.074Z,76.29
2023-02-07T17:51:21.614Z,76.45
2023-02-07T17:53:58.863Z,76.48
2023-02-07T17:56:36.978Z,76.45
2023-02-07T17:59:24.759Z,76.48
2023-02-07T18:02:01.304Z,76.51
2023-02-07T18:04:37.953Z,76.59
2023-02-07T18:07:15.648Z,76.61
2023-02-07T18:09:52.020Z,76.69
2023-02-07T18:12:28.386Z,76.69
2023-02-07T18:15:05.767Z,76.70
2023-02-07T18:17:47.326Z,76.77
2023-02-07T18:20:27.627Z,76.75
2023-02-07T18:23:04.996Z,76.74
2023-02-07T18:25:41.624Z,76.70
2023-02-07T18:28:18.279Z,76.68
2023-02-07T18:30:54.916Z,76.71
2023-02-07T18:33:31.461Z,76.74
2023-02-07T18:36:10.737Z,76.72
2023-02-07T18:38:47.270Z,76.71
2023-02-07T18:41:26.794Z,76.70
2023-02-07T18:44:03.925Z,76.60
2023-02-07T18:46:40.609Z,76.68
2023-02-07T18:49:18.627Z,76.70
2023-02-07T18:51:55.986Z,76.70
2023-02-07T18:54:32.908Z,76.72
2023-02-07T18:57:09.823Z,76.80
2023-02-07T18:59:47.013Z,76.83
2023-02-07T19:02:23.808Z,76.90
2023-02-07T19:05:00.675Z,76.90
2023-02-07T19:07:37.037Z,76.92
2023-02-07T19:10:16.633Z,76.96
2023-02-07T19:12:53.041Z,76.95
2023-02-07T19:15:29.668Z,77.00
2023-02-07T19:18:06.871Z,77.08
2023-02-07T19:20:44.118Z,77.13
2023-02-07T19:23:20.550Z,77.16
2023-02-07T19:25:56.915Z,77.10
2023-02-07T19:28:34.126Z,77.10
2023-02-07T19:31:18.213Z,77.10
2023-02-07T19:33:56.194Z,77.11
2023-02-07T19:36:33.764Z,77.08
2023-02-07T19:39:11.538Z,77.06
2023-02-07T19:41:47.865Z,77.07
2023-02-07T19:44:24.470Z,77.03
2023-02-07T19:47:01.431Z,76.99
2023-02-07T19:49:37.823Z,76.90
2023-02-07T19:52:14.497Z,76.99
2023-02-07T19:54:51.270Z,77.00
2023-02-07T19:57:27.925Z,77.00
2023-02-07T20:00:06.458Z,76.95
2023-02-07T20:02:43.743Z,76.90
2023-02-07T20:05:20.612Z,76.91
2023-02-07T20:07:59.007Z,76.94
2023-02-07T20:10:35.403Z,76.84
2023-02-07T20:13:11.891Z,76.88
2023-02-07T20:15:50.044Z,76.95
2023-02-07T20:18:28.289Z,76.99
2023-02-07T20:21:11.396Z,76.93
2023-02-07T20:23:49.787Z,77.00
2023-02-07T20:26:31.585Z,77.02
2023-02-07T20:29:13.000Z,77.10
2023-02-07T20:31:50.438Z,77.16
2023-02-07T20:34:26.959Z,77.24
2023-02-07T20:37:03.523Z,77.29
2023-02-07T20:39:40.544Z,77.39
2023-02-07T20:42:16.801Z,77.40
2023-02-07T20:44:53.729Z,77.40
2023-02-07T20:47:30.034Z,77.41
2023-02-07T20:50:07.426Z,77.47
2023-02-07T20:52:43.760Z,77.50
2023-02-07T20:55:21.392Z,77.57
2023-02-07T20:57:57.962Z,77.60
2023-02-07T21:00:34.618Z,77.62
2023-02-07T21:03:10.958Z,77.72
2023-02-07T21:05:47.356Z,77.81
2023-02-07T21:08:24.218Z,77.89
2023-02-07T21:11:01.424Z,77.90
2023-02-07T21:13:39.816Z,77.95
2023-02-07T21:16:17.243Z,78.00
2023-02-07T21:18:56.721Z,77.99
2023-02-07T21:21:34.290Z,77.99
2023-02-07T21:24:12.096Z,78.04
2023-02-07T21:26:53.568Z,78.10
2023-02-07T21:29:30.814Z,78.13
2023-02-07T21:32:07.750Z,78.23
2023-02-07T21:34:44.729Z,78.24
2023-02-07T21:37:21.339Z,78.28
2023-02-07T21:39:57.614Z,78.30
2023-02-07T21:42:34.259Z,78.29
2023-02-07T21:45:12.725Z,78.30
2023-02-07T21:47:49.310Z,78.30
2023-02-07T21:50:26.486Z,78.29
2023-02-07T21:53:02.791Z,78.33
2023-02-07T21:55:39.219Z,78.30
2023-02-07T21:58:15.941Z,78.30
2023-02-07T22:00:52.434Z,78.27
2023-02-07T22:03:28.981Z,78.23
2023-02-07T22:06:06.191Z,78.24
2023-02-07T22:08:49.246Z,78.20
2023-02-07T22:11:28.630Z,78.21
2023-02-07T22:14:06.339Z,78.18
2023-02-07T22:16:43.451Z,78.20
2023-02-07T22:19:21.036Z,78.21
2023-02-07T22:21:59.024Z,78.20
2023-02-07T22:24:35.263Z,78.17
2023-02-07T22:27:12.345Z,78.19
2023-02-07T22:29:48.809Z,78.20
2023-02-07T22:32:25.072Z,78.27
2023-02-07T22:35:01.329Z,78.27
2023-02-07T22:37:37.699Z,78.23
2023-02-07T22:40:15.533Z,78.20
2023-02-07T22:42:52.072Z,78.28
2023-02-07T22:45:28.536Z,78.30
2023-02-07T22:48:05.344Z,78.31
2023-02-07T22:50:42.149Z,78.32
2023-02-07T22:53:18.526Z,78.27
2023-02-07T22:55:54.911Z,78.30
2023-02-07T22:58:32.006Z,78.30
2023-02-07T23:01:16.050Z,78.28
2023-02-07T23:03:53.476Z,78.26
2023-02-07T23:06:32.568Z,78.20
2023-02-07T23:09:09.465Z,78.19
2023-02-07T23:11:45.919Z,78.17
2023-02-07T23:14:22.277Z,78.10
2023-02-07T23:16:58.603Z,78.10
2023-02-07T23:19:35.315Z,78.10
2023-02-07T23:22:11.690Z,78.10
2023-02-07T23:24:49.512Z,78.07
2023-02-07T23:27:26.869Z,78.02
2023-02-07T23:30:03.218Z,78.00
2023-02-07T23:32:39.813Z,77.93
2023-02-07T23:35:16.279Z,77.97
2023-02-07T23:37:52.868Z,78.04
2023-02-07T23:40:29.941Z,77.99
2023-02-07T23:43:06.500Z,78.00
2023-02-07T23:45:42.825Z,77.99
2023-02-07T23:48:19.534Z,77.97
2023-02-07T23:50:59.391Z,78.00
2023-02-07T23:53:36.683Z,77.90
2023-02-07T23:56:17.609Z,77.98
2023-02-07T23:58:54.957Z,78.01
